sensor_id;sensor_type;location;lat;lon;timestamp;pressure;altitude;pressure_sealevel;temperature;humidity
6833;BME280;3454;42.654;23.378;2023-04-28T00:01:21;63656.13;;;6.92;58.24
6833;BME280;3454;42.654;23.378;2023-04-28T00:03:48;63650.91;;;6.89;58.47
6833;BME280;3454;42.654;23.378;2023-04-28T00:06:13;63657.56;;;6.91;58.03
6833;BME280;3454;42.654;23.378;2023-04-28T00:08:39;63644.69;;;6.81;59.20
6833;BME280;3454;42.654;23.378;2023-04-28T00:11:11;63631.06;;;6.68;58.94
6833;BME280;3454;42.654;23.378;2023-04-28T00:13:37;63637.06;;;6.74;58.63
6833;BME280;3454;42.654;23.378;2023-04-28T00:16:03;63625.38;;;6.61;58.75
6833;BME280;3454;42.654;23.378;2023-04-28T00:18:28;63634.88;;;6.72;58.67
6833;BME280;3454;42.654;23.378;2023-04-28T00:20:54;63621.25;;;6.59;59.54
6833;BME280;3454;42.654;23.378;2023-04-28T00:23:20;63620.94;;;6.61;59.45
6833;BME280;3454;42.654;23.378;2023-04-28T00:25:52;63621.25;;;6.59;59.36
6833;BME280;3454;42.654;23.378;2023-04-28T00:28:18;63616.13;;;6.52;60.15
6833;BME280;3454;42.654;23.378;2023-04-28T00:30:43;63600.53;;;6.40;60.43
6833;BME280;3454;42.654;23.378;2023-04-28T00:33:09;63588.00;;;6.29;59.80
6833;BME280;3454;42.654;23.378;2023-04-28T00:35:34;63595.09;;;6.35;60.28
6833;BME280;3454;42.654;23.378;2023-04-28T00:38:00;63597.03;;;6.35;60.08
6833;BME280;3454;42.654;23.378;2023-04-28T00:40:36;63599.13;;;6.41;60.44
6833;BME280;3454;42.654;23.378;2023-04-28T00:43:03;63603.50;;;6.45;60.25
6833;BME280;3454;42.654;23.378;2023-04-28T00:45:29;63588.56;;;6.29;60.85
6833;BME280;3454;42.654;23.378;2023-04-28T00:47:55;63594.31;;;6.32;60.64
6833;BME280;3454;42.654;23.378;2023-04-28T00:50:22;63590.72;;;6.31;60.80
6833;BME280;3454;42.654;23.378;2023-04-28T00:52:49;63573.28;;;6.15;61.07
6833;BME280;3454;42.654;23.378;2023-04-28T00:55:15;63583.97;;;6.23;61.21
6833;BME280;3454;42.654;23.378;2023-04-28T00:57:41;63573.84;;;6.16;61.42
6833;BME280;3454;42.654;23.378;2023-04-28T01:00:08;63578.72;;;6.20;61.00
6833;BME280;3454;42.654;23.378;2023-04-28T01:02:36;63552.91;;;5.94;61.83
6833;BME280;3454;42.654;23.378;2023-04-28T01:05:02;63564.91;;;6.05;62.27
6833;BME280;3454;42.654;23.378;2023-04-28T01:07:28;63563.28;;;6.04;62.49
6833;BME280;3454;42.654;23.378;2023-04-28T01:09:54;63550.19;;;5.91;62.16
6833;BME280;3454;42.654;23.378;2023-04-28T01:12:20;63553.13;;;5.97;62.48
6833;BME280;3454;42.654;23.378;2023-04-28T01:14:46;63546.06;;;5.90;62.37
6833;BME280;3454;42.654;23.378;2023-04-28T01:17:12;63539.00;;;5.83;62.97
6833;BME280;3454;42.654;23.378;2023-04-28T01:19:38;63546.38;;;5.88;62.57
6833;BME280;3454;42.654;23.378;2023-04-28T01:22:03;63536.25;;;5.81;62.49
6833;BME280;3454;42.654;23.378;2023-04-28T01:24:29;63534.06;;;5.79;63.14
6833;BME280;3454;42.654;23.378;2023-04-28T01:26:54;63539.81;;;5.82;63.38
6833;BME280;3454;42.654;23.378;2023-04-28T01:29:20;63539.00;;;5.83;63.20
6833;BME280;3454;42.654;23.378;2023-04-28T01:31:45;63536.00;;;5.78;62.75
6833;BME280;3454;42.654;23.378;2023-04-28T01:34:11;63513.91;;;5.60;63.23
6833;BME280;3454;42.654;23.378;2023-04-28T01:36:36;63512.28;;;5.59;63.24
6833;BME280;3454;42.654;23.378;2023-04-28T01:39:02;63519.91;;;5.66;63.26
6833;BME280;3454;42.654;23.378;2023-04-28T01:41:28;63524.03;;;5.67;63.27
6833;BME280;3454;42.654;23.378;2023-04-28T01:43:53;63525.13;;;5.68;63.07
6833;BME280;3454;42.654;23.378;2023-04-28T01:46:19;63522.94;;;5.66;63.25
6833;BME280;3454;42.654;23.378;2023-04-28T01:48:44;63522.63;;;5.68;63.13
6833;BME280;3454;42.654;23.378;2023-04-28T01:51:10;63521.00;;;5.67;62.42
6833;BME280;3454;42.654;23.378;2023-04-28T01:53:35;63518.25;;;5.64;62.61
6833;BME280;3454;42.654;23.378;2023-04-28T01:56:00;63514.78;;;5.59;62.92
6833;BME280;3454;42.654;23.378;2023-04-28T01:58:26;63520.22;;;5.64;62.01
6833;BME280;3454;42.654;23.378;2023-04-28T02:00:52;63516.97;;;5.61;61.72
6833;BME280;3454;42.654;23.378;2023-04-28T02:03:17;63512.28;;;5.59;62.68
6833;BME280;3454;42.654;23.378;2023-04-28T02:05:43;63506.28;;;5.53;62.88
6833;BME280;3454;42.654;23.378;2023-04-28T02:08:08;63504.13;;;5.51;62.42
6833;BME280;3454;42.654;23.378;2023-04-28T02:10:33;63500.63;;;5.46;62.70
6833;BME280;3454;42.654;23.378;2023-04-28T02:12:59;63509.31;;;5.54;62.21
6833;BME280;3454;42.654;23.378;2023-04-28T02:15:24;63502.78;;;5.48;62.25
6833;BME280;3454;42.654;23.378;2023-04-28T02:17:50;63496.81;;;5.42;62.98
6833;BME280;3454;42.654;23.378;2023-04-28T02:20:15;63487.03;;;5.33;62.76
6833;BME280;3454;42.654;23.378;2023-04-28T02:22:41;63495.19;;;5.41;63.04
6833;BME280;3454;42.654;23.378;2023-04-28T02:25:07;63487.56;;;5.34;63.42
6833;BME280;3454;42.654;23.378;2023-04-28T02:27:34;63484.53;;;5.33;63.71
6833;BME280;3454;42.654;23.378;2023-04-28T02:30:02;63488.09;;;5.34;63.66
6833;BME280;3454;42.654;23.378;2023-04-28T02:32:27;63495.72;;;5.41;62.97
6833;BME280;3454;42.654;23.378;2023-04-28T02:34:53;63493.22;;;5.41;62.94
6833;BME280;3454;42.654;23.378;2023-04-28T02:37:19;63496.25;;;5.42;62.87
6833;BME280;3454;42.654;23.378;2023-04-28T02:39:44;63497.03;;;5.45;63.50
6833;BME280;3454;42.654;23.378;2023-04-28T02:42:10;63507.16;;;5.52;62.97
6833;BME280;3454;42.654;23.378;2023-04-28T02:44:36;63515.09;;;5.57;62.77
6833;BME280;3454;42.654;23.378;2023-04-28T02:47:01;63491.59;;;5.40;63.63
6833;BME280;3454;42.654;23.378;2023-04-28T02:49:27;63520.44;;;5.66;62.80
6833;BME280;3454;42.654;23.378;2023-04-28T02:51:52;63517.81;;;5.59;63.74
6833;BME280;3454;42.654;23.378;2023-04-28T02:54:18;63519.13;;;5.63;63.24
6833;BME280;3454;42.654;23.378;2023-04-28T02:56:52;63515.00;;;5.61;63.23
6833;BME280;3454;42.654;23.378;2023-04-28T02:59:18;63522.06;;;5.68;63.10
6833;BME280;3454;42.654;23.378;2023-04-28T03:01:44;63517.50;;;5.61;62.99
6833;BME280;3454;42.654;23.378;2023-04-28T03:04:09;63513.16;;;5.57;62.88
6833;BME280;3454;42.654;23.378;2023-04-28T03:06:34;63510.09;;;5.57;63.27
6833;BME280;3454;42.654;23.378;2023-04-28T03:09:00;63496.25;;;5.42;63.31
6833;BME280;3454;42.654;23.378;2023-04-28T03:11:25;63491.06;;;5.39;63.98
6833;BME280;3454;42.654;23.378;2023-04-28T03:13:51;63511.50;;;5.56;62.96
6833;BME280;3454;42.654;23.378;2023-04-28T03:16:16;63510.97;;;5.55;63.00
6833;BME280;3454;42.654;23.378;2023-04-28T03:18:42;63498.44;;;5.44;63.93
6833;BME280;3454;42.654;23.378;2023-04-28T03:21:08;63495.94;;;5.44;63.81
6833;BME280;3454;42.654;23.378;2023-04-28T03:23:33;63509.56;;;5.56;63.95
6833;BME280;3454;42.654;23.378;2023-04-28T03:25:58;63510.97;;;5.55;63.04
6833;BME280;3454;42.654;23.378;2023-04-28T03:28:24;63509.31;;;5.54;64.05
6833;BME280;3454;42.654;23.378;2023-04-28T03:30:50;63501.72;;;5.47;63.29
6833;BME280;3454;42.654;23.378;2023-04-28T03:33:16;63501.72;;;5.47;63.36
6833;BME280;3454;42.654;23.378;2023-04-28T03:35:42;63504.97;;;5.50;62.85
6833;BME280;3454;42.654;23.378;2023-04-28T03:38:07;63497.91;;;5.43;63.54
6833;BME280;3454;42.654;23.378;2023-04-28T03:40:32;63503.13;;;5.46;62.70
6833;BME280;3454;42.654;23.378;2023-04-28T03:42:58;63495.19;;;5.41;62.57
6833;BME280;3454;42.654;23.378;2023-04-28T03:45:23;63489.19;;;5.35;63.04
6833;BME280;3454;42.654;23.378;2023-04-28T03:47:49;63499.75;;;5.47;63.13
6833;BME280;3454;42.654;23.378;2023-04-28T03:50:14;63495.41;;;5.43;62.90
6833;BME280;3454;42.654;23.378;2023-04-28T03:52:40;63499.53;;;5.45;62.08
6833;BME280;3454;42.654;23.378;2023-04-28T03:55:05;63500.09;;;5.45;62.64
6833;BME280;3454;42.654;23.378;2023-04-28T03:57:31;63508.78;;;5.53;61.69
6833;BME280;3454;42.654;23.378;2023-04-28T03:59:57;63504.22;;;5.47;61.88
6833;BME280;3454;42.654;23.378;2023-04-28T04:02:22;63488.31;;;5.37;62.04
6833;BME280;3454;42.654;23.378;2023-04-28T04:04:48;63494.09;;;5.40;62.76
6833;BME280;3454;42.654;23.378;2023-04-28T04:07:13;63500.53;;;5.50;61.68
6833;BME280;3454;42.654;23.378;2023-04-28T04:09:39;63500.09;;;5.45;61.32
6833;BME280;3454;42.654;23.378;2023-04-28T04:12:04;63520.22;;;5.64;61.43
6833;BME280;3454;42.654;23.378;2023-04-28T04:14:30;63507.94;;;5.55;61.09
6833;BME280;3454;42.654;23.378;2023-04-28T04:17:02;63503.13;;;5.46;60.67
6833;BME280;3454;42.654;23.378;2023-04-28T04:19:28;63521.31;;;5.65;61.59
6833;BME280;3454;42.654;23.378;2023-04-28T04:21:53;63508.47;;;5.55;61.47
6833;BME280;3454;42.654;23.378;2023-04-28T04:24:19;63504.44;;;5.49;60.72
6833;BME280;3454;42.654;23.378;2023-04-28T04:26:44;63504.66;;;5.52;61.04
6833;BME280;3454;42.654;23.378;2023-04-28T04:29:09;63501.94;;;5.49;60.94
6833;BME280;3454;42.654;23.378;2023-04-28T04:31:35;63504.97;;;5.50;61.14
6833;BME280;3454;42.654;23.378;2023-04-28T04:34:06;63499.53;;;5.45;60.82
6833;BME280;3454;42.654;23.378;2023-04-28T04:36:32;63508.25;;;5.53;60.82
6833;BME280;3454;42.654;23.378;2023-04-28T04:38:57;63512.84;;;5.59;60.82
6833;BME280;3454;42.654;23.378;2023-04-28T04:41:25;63518.25;;;5.64;60.37
6833;BME280;3454;42.654;23.378;2023-04-28T04:43:50;63508.78;;;5.53;60.74
6833;BME280;3454;42.654;23.378;2023-04-28T04:46:15;63520.75;;;5.64;60.88
6833;BME280;3454;42.654;23.378;2023-04-28T04:48:41;63530.78;;;5.76;59.89
6833;BME280;3454;42.654;23.378;2023-04-28T04:51:06;63534.06;;;5.79;59.78
6833;BME280;3454;42.654;23.378;2023-04-28T04:53:32;63541.50;;;5.83;59.53
6833;BME280;3454;42.654;23.378;2023-04-28T04:55:57;63554.25;;;5.98;59.30
6833;BME280;3454;42.654;23.378;2023-04-28T04:58:23;63561.31;;;6.04;59.20
6833;BME280;3454;42.654;23.378;2023-04-28T05:00:49;63541.69;;;5.86;59.25
6833;BME280;3454;42.654;23.378;2023-04-28T05:03:14;63524.56;;;5.68;59.50
6833;BME280;3454;42.654;23.378;2023-04-28T05:05:40;63526.09;;;5.74;59.67
6833;BME280;3454;42.654;23.378;2023-04-28T05:08:05;63543.13;;;5.85;59.87
6833;BME280;3454;42.654;23.378;2023-04-28T05:10:31;63556.75;;;5.98;59.04
6833;BME280;3454;42.654;23.378;2023-04-28T05:12:57;63558.38;;;5.99;59.77
6833;BME280;3454;42.654;23.378;2023-04-28T05:15:22;63559.44;;;6.00;59.05
6833;BME280;3454;42.654;23.378;2023-04-28T05:17:48;63572.19;;;6.14;60.10
6833;BME280;3454;42.654;23.378;2023-04-28T05:20:13;63569.81;;;6.10;59.46
6833;BME280;3454;42.654;23.378;2023-04-28T05:22:39;63590.50;;;6.29;59.02
6833;BME280;3454;42.654;23.378;2023-04-28T05:25:05;63592.91;;;6.33;57.81
6833;BME280;3454;42.654;23.378;2023-04-28T05:27:31;63597.03;;;6.35;57.52
6833;BME280;3454;42.654;23.378;2023-04-28T05:29:56;63607.41;;;6.44;58.20
6833;BME280;3454;42.654;23.378;2023-04-28T05:32:22;63601.41;;;6.39;57.68
6833;BME280;3454;42.654;23.378;2023-04-28T05:34:47;63595.41;;;6.33;58.14
6833;BME280;3454;42.654;23.378;2023-04-28T05:37:13;63610.66;;;6.47;58.17
6833;BME280;3454;42.654;23.378;2023-04-28T05:39:38;63615.81;;;6.54;57.53
6833;BME280;3454;42.654;23.378;2023-04-28T05:42:03;63676.09;;;7.08;59.70
6833;BME280;3454;42.654;23.378;2023-04-28T05:44:30;63645.88;;;6.77;58.77
6833;BME280;3454;42.654;23.378;2023-04-28T05:46:55;63650.47;;;6.84;58.61
6833;BME280;3454;42.654;23.378;2023-04-28T05:49:21;63626.91;;;6.67;58.08
6833;BME280;3454;42.654;23.378;2023-04-28T05:51:47;63640.44;;;6.72;58.68
6833;BME280;3454;42.654;23.378;2023-04-28T05:54:13;63639.78;;;6.76;58.26
6833;BME280;3454;42.654;23.378;2023-04-28T05:56:38;63633.56;;;6.68;58.18
6833;BME280;3454;42.654;23.378;2023-04-28T05:59:04;63649.91;;;6.84;57.17
6833;BME280;3454;42.654;23.378;2023-04-28T06:01:30;63653.41;;;6.89;58.77
6833;BME280;3454;42.654;23.378;2023-04-28T06:03:56;63669.22;;;7.04;57.93
6833;BME280;3454;42.654;23.378;2023-04-28T06:06:23;63657.25;;;6.93;57.75
6833;BME280;3454;42.654;23.378;2023-04-28T06:08:49;63665.19;;;6.98;56.55
6833;BME280;3454;42.654;23.378;2023-04-28T06:11:14;63664.84;;;7.00;56.42
6833;BME280;3454;42.654;23.378;2023-04-28T06:13:40;63671.94;;;7.06;56.66
6833;BME280;3454;42.654;23.378;2023-04-28T06:16:05;63662.69;;;6.98;56.34
6833;BME280;3454;42.654;23.378;2023-04-28T06:18:32;63654.81;;;6.88;55.66
6833;BME280;3454;42.654;23.378;2023-04-28T06:20:57;63667.38;;;7.00;55.70
6833;BME280;3454;42.654;23.378;2023-04-28T06:23:23;63669.22;;;7.04;55.97
6833;BME280;3454;42.654;23.378;2023-04-28T06:25:48;63688.84;;;7.22;55.45
6833;BME280;3454;42.654;23.378;2023-04-28T06:28:14;63715.81;;;7.49;55.84
6833;BME280;3454;42.654;23.378;2023-04-28T06:30:39;63749.41;;;7.78;55.31
6833;BME280;3454;42.654;23.378;2023-04-28T06:33:05;63759.22;;;7.87;54.59
6833;BME280;3454;42.654;23.378;2023-04-28T06:35:31;63757.28;;;7.87;55.48
6833;BME280;3454;42.654;23.378;2023-04-28T06:37:59;63739.81;;;7.71;53.64
6833;BME280;3454;42.654;23.378;2023-04-28T06:40:26;63758.69;;;7.86;53.90
6833;BME280;3454;42.654;23.378;2023-04-28T06:42:51;63775.72;;;7.97;52.87
6833;BME280;3454;42.654;23.378;2023-04-28T06:45:17;63789.03;;;8.12;52.85
6833;BME280;3454;42.654;23.378;2023-04-28T06:47:43;63781.06;;;8.07;51.99
6833;BME280;3454;42.654;23.378;2023-04-28T06:50:09;63776.69;;;8.03;52.25
6833;BME280;3454;42.654;23.378;2023-04-28T06:52:34;63761.41;;;7.89;53.05
6833;BME280;3454;42.654;23.378;2023-04-28T06:55:00;63807.84;;;8.31;53.57
6833;BME280;3454;42.654;23.378;2023-04-28T06:57:25;63844.41;;;8.65;51.75
6833;BME280;3454;42.654;23.378;2023-04-28T06:59:51;63868.22;;;8.85;51.25
6833;BME280;3454;42.654;23.378;2023-04-28T07:02:16;63846.38;;;8.65;51.90
6833;BME280;3454;42.654;23.378;2023-04-28T07:04:41;63826.41;;;8.48;50.68
6833;BME280;3454;42.654;23.378;2023-04-28T07:07:07;63829.34;;;8.54;51.18
6833;BME280;3454;42.654;23.378;2023-04-28T07:09:35;63838.41;;;8.60;49.93
6833;BME280;3454;42.654;23.378;2023-04-28T07:12:02;63861.69;;;8.79;50.89
6833;BME280;3454;42.654;23.378;2023-04-28T07:14:28;63890.88;;;9.08;50.35
6833;BME280;3454;42.654;23.378;2023-04-28T07:16:54;63911.84;;;9.29;48.98
6833;BME280;3454;42.654;23.378;2023-04-28T07:19:19;63896.66;;;9.11;47.96
6833;BME280;3454;42.654;23.378;2023-04-28T07:21:44;63879.16;;;8.95;47.93
6833;BME280;3454;42.654;23.378;2023-04-28T07:24:10;63903.97;;;9.20;48.73
6833;BME280;3454;42.654;23.378;2023-04-28T07:26:35;63891.63;;;9.11;48.44
6833;BME280;3454;42.654;23.378;2023-04-28T07:29:01;63907.81;;;9.23;48.68
6833;BME280;3454;42.654;23.378;2023-04-28T07:31:27;63926.41;;;9.41;49.02
6833;BME280;3454;42.654;23.378;2023-04-28T07:33:53;63917.66;;;9.32;47.93
6833;BME280;3454;42.654;23.378;2023-04-28T07:36:19;63915.69;;;9.33;46.68
6833;BME280;3454;42.654;23.378;2023-04-28T07:38:45;63955.91;;;9.68;47.31
6833;BME280;3454;42.654;23.378;2023-04-28T07:41:10;63940.94;;;9.52;47.07
6833;BME280;3454;42.654;23.378;2023-04-28T07:43:36;63949.91;;;9.62;47.10
6833;BME280;3454;42.654;23.378;2023-04-28T07:46:02;64012.81;;;10.20;46.45
6833;BME280;3454;42.654;23.378;2023-04-28T07:48:27;64060.75;;;10.62;45.87
6833;BME280;3454;42.654;23.378;2023-04-28T07:50:53;64081.22;;;10.83;46.83
6833;BME280;3454;42.654;23.378;2023-04-28T07:53:18;64064.56;;;10.65;45.01
6833;BME280;3454;42.654;23.378;2023-04-28T07:55:44;64089.97;;;10.91;44.67
6833;BME280;3454;42.654;23.378;2023-04-28T07:58:11;64078.69;;;10.83;44.57
6833;BME280;3454;42.654;23.378;2023-04-28T08:00:37;64022.09;;;10.29;44.47
6833;BME280;3454;42.654;23.378;2023-04-28T08:03:02;64040.41;;;10.48;44.37
6833;BME280;3454;42.654;23.378;2023-04-28T08:05:28;64092.94;;;10.96;45.03
6833;BME280;3454;42.654;23.378;2023-04-28T08:07:54;64150.97;;;11.49;43.76
6833;BME280;3454;42.654;23.378;2023-04-28T08:10:19;64137.06;;;11.34;42.54
6833;BME280;3454;42.654;23.378;2023-04-28T08:12:45;64142.75;;;11.42;41.96
6833;BME280;3454;42.654;23.378;2023-04-28T08:15:11;64135.44;;;11.33;42.41
6833;BME280;3454;42.654;23.378;2023-04-28T08:17:37;64087.03;;;10.86;43.22
6833;BME280;3454;42.654;23.378;2023-04-28T08:20:03;64100.91;;;11.01;42.69
6833;BME280;3454;42.654;23.378;2023-04-28T08:22:30;64117.34;;;11.16;42.43
6833;BME280;3454;42.654;23.378;2023-04-28T08:24:56;64179.84;;;11.73;42.60
6833;BME280;3454;42.654;23.378;2023-04-28T08:27:21;64222.22;;;12.15;43.76
6833;BME280;3454;42.654;23.378;2023-04-28T08:29:48;64214.34;;;12.05;42.10
6833;BME280;3454;42.654;23.378;2023-04-28T08:32:13;64225.88;;;12.16;40.73
6833;BME280;3454;42.654;23.378;2023-04-28T08:34:38;64235.38;;;12.27;41.45
6833;BME280;3454;42.654;23.378;2023-04-28T08:37:05;64238.13;;;12.29;41.83
6833;BME280;3454;42.654;23.378;2023-04-28T08:39:31;64247.47;;;12.38;41.57
6833;BME280;3454;42.654;23.378;2023-04-28T08:41:58;64257.09;;;12.44;41.82
6833;BME280;3454;42.654;23.378;2023-04-28T08:44:23;64288.03;;;12.75;40.58
6833;BME280;3454;42.654;23.378;2023-04-28T08:46:53;64338.19;;;13.23;40.53
6833;BME280;3454;42.654;23.378;2023-04-28T08:49:22;64323.47;;;13.05;40.84
6833;BME280;3454;42.654;23.378;2023-04-28T08:51:56;64282.56;;;12.70;39.07
6833;BME280;3454;42.654;23.378;2023-04-28T08:54:29;64299.66;;;12.81;40.35
6833;BME280;3454;42.654;23.378;2023-04-28T08:56:56;64299.31;;;12.83;39.69
6833;BME280;3454;42.654;23.378;2023-04-28T08:59:22;64342.16;;;13.22;39.25
6833;BME280;3454;42.654;23.378;2023-04-28T09:01:48;64389.00;;;13.68;39.51
6833;BME280;3454;42.654;23.378;2023-04-28T09:04:16;64357.19;;;13.38;39.12
6833;BME280;3454;42.654;23.378;2023-04-28T09:06:42;64386.81;;;13.66;37.89
6833;BME280;3454;42.654;23.378;2023-04-28T09:14:24;64418.09;;;13.94;38.00
6833;BME280;3454;42.654;23.378;2023-04-28T09:16:50;64378.59;;;13.58;37.28
6833;BME280;3454;42.654;23.378;2023-04-28T09:19:16;64433.81;;;14.06;38.77
6833;BME280;3454;42.654;23.378;2023-04-28T09:21:52;64442.81;;;14.17;37.20
6833;BME280;3454;42.654;23.378;2023-04-28T09:24:35;64518.66;;;14.86;37.82
6833;BME280;3454;42.654;23.378;2023-04-28T09:27:05;64559.34;;;15.24;36.75
6833;BME280;3454;42.654;23.378;2023-04-28T09:29:32;64585.22;;;15.47;35.63
6833;BME280;3454;42.654;23.378;2023-04-28T09:32:18;64578.56;;;15.41;34.71
6833;BME280;3454;42.654;23.378;2023-04-28T09:34:51;64490.44;;;14.58;35.58
6833;BME280;3454;42.654;23.378;2023-04-28T09:37:22;64558.78;;;15.23;36.90
6833;BME280;3454;42.654;23.378;2023-04-28T09:39:50;64591.59;;;15.51;35.74
6833;BME280;3454;42.654;23.378;2023-04-28T09:44:58;64619.84;;;15.79;34.39
6833;BME280;3454;42.654;23.378;2023-04-28T09:47:24;64648.47;;;16.05;34.13
6833;BME280;3454;42.654;23.378;2023-04-28T09:49:54;64663.53;;;16.21;34.21
6833;BME280;3454;42.654;23.378;2023-04-28T09:52:23;64673.22;;;16.28;33.86
6833;BME280;3454;42.654;23.378;2023-04-28T09:54:50;64616.00;;;15.75;33.12
6833;BME280;3454;42.654;23.378;2023-04-28T09:57:16;64666.63;;;16.22;34.33
6833;BME280;3454;42.654;23.378;2023-04-28T09:59:49;64734.34;;;16.84;34.53
6833;BME280;3454;42.654;23.378;2023-04-28T10:02:16;64635.25;;;15.93;34.91
6833;BME280;3454;42.654;23.378;2023-04-28T10:04:48;64733.25;;;16.83;34.60
6833;BME280;3454;42.654;23.378;2023-04-28T10:07:16;64794.94;;;17.39;32.21
6833;BME280;3454;42.654;23.378;2023-04-28T10:09:44;64744.63;;;16.91;32.12
6833;BME280;3454;42.654;23.378;2023-04-28T10:12:16;64790.53;;;17.35;33.74
6833;BME280;3454;42.654;23.378;2023-04-28T10:14:42;64756.94;;;17.04;30.02
6833;BME280;3454;42.654;23.378;2023-04-28T10:17:10;64763.34;;;17.08;31.27
6833;BME280;3454;42.654;23.378;2023-04-28T10:19:35;64734.91;;;16.84;30.52
6833;BME280;3454;42.654;23.378;2023-04-28T10:22:23;64774.00;;;17.20;29.68
6833;BME280;3454;42.654;23.378;2023-04-28T10:27:37;64834.66;;;17.75;29.27
6833;BME280;3454;42.654;23.378;2023-04-28T10:30:14;64792.94;;;17.39;29.58
6833;BME280;3454;42.654;23.378;2023-04-28T10:32:40;64770.16;;;17.16;29.51
6833;BME280;3454;42.654;23.378;2023-04-28T10:38:03;64752.88;;;16.98;30.22
6833;BME280;3454;42.654;23.378;2023-04-28T10:40:36;64760.78;;;17.08;30.30
6833;BME280;3454;42.654;23.378;2023-04-28T10:43:03;64802.09;;;17.45;31.25
6833;BME280;3454;42.654;23.378;2023-04-28T10:48:14;64810.41;;;17.53;29.79
6833;BME280;3454;42.654;23.378;2023-04-28T10:51:20;64758.78;;;17.08;30.26
6833;BME280;3454;42.654;23.378;2023-04-28T10:56:24;64782.25;;;17.27;29.46
6833;BME280;3454;42.654;23.378;2023-04-28T10:58:51;64809.28;;;17.52;30.32
6833;BME280;3454;42.654;23.378;2023-04-28T11:06:24;64841.25;;;17.81;29.05
6833;BME280;3454;42.654;23.378;2023-04-28T11:08:55;64901.88;;;18.36;29.04
6833;BME280;3454;42.654;23.378;2023-04-28T11:11:31;64897.69;;;18.35;27.93
6833;BME280;3454;42.654;23.378;2023-04-28T11:19:17;64959.69;;;18.94;27.34
6833;BME280;3454;42.654;23.378;2023-04-28T11:21:43;64839.81;;;17.82;27.84
6833;BME280;3454;42.654;23.378;2023-04-28T11:24:09;64843.47;;;17.83;28.81
6833;BME280;3454;42.654;23.378;2023-04-28T11:26:36;64969.22;;;18.98;27.27
6833;BME280;3454;42.654;23.378;2023-04-28T11:29:03;64996.25;;;19.22;26.25
6833;BME280;3454;42.654;23.378;2023-04-28T11:31:29;65022.22;;;19.46;26.50
6833;BME280;3454;42.654;23.378;2023-04-28T11:34:05;64905.22;;;18.39;27.11
6833;BME280;3454;42.654;23.378;2023-04-28T11:36:35;64947.16;;;18.78;28.48
6833;BME280;3454;42.654;23.378;2023-04-28T11:39:05;65011.53;;;19.34;27.02
6833;BME280;3454;42.654;23.378;2023-04-28T11:41:36;65048.16;;;19.70;26.25
6833;BME280;3454;42.654;23.378;2023-04-28T11:46:44;65130.13;;;20.47;24.99
6833;BME280;3454;42.654;23.378;2023-04-28T11:49:10;65085.16;;;20.03;23.83
6833;BME280;3454;42.654;23.378;2023-04-28T11:51:37;65030.50;;;19.54;24.82
6833;BME280;3454;42.654;23.378;2023-04-28T11:54:04;65029.41;;;19.53;25.70
6833;BME280;3454;42.654;23.378;2023-04-28T11:56:45;65084.81;;;20.05;25.00
6833;BME280;3454;42.654;23.378;2023-04-28T11:59:12;65087.38;;;20.05;25.09
6833;BME280;3454;42.654;23.378;2023-04-28T12:01:53;65160.53;;;20.74;23.97
6833;BME280;3454;42.654;23.378;2023-04-28T12:04:32;65138.22;;;20.52;23.68
6833;BME280;3454;42.654;23.378;2023-04-28T12:07:10;65169.91;;;20.83;23.67
6833;BME280;3454;42.654;23.378;2023-04-28T12:09:38;65169.72;;;20.80;23.67
6833;BME280;3454;42.654;23.378;2023-04-28T12:12:04;65068.59;;;19.88;23.59
6833;BME280;3454;42.654;23.378;2023-04-28T12:14:31;65055.91;;;19.77;24.95
6833;BME280;3454;42.654;23.378;2023-04-28T12:17:00;65069.88;;;19.92;24.46
6833;BME280;3454;42.654;23.378;2023-04-28T12:19:26;65010.28;;;19.38;25.52
6833;BME280;3454;42.654;23.378;2023-04-28T12:22:02;65084.81;;;20.05;26.09
6833;BME280;3454;42.654;23.378;2023-04-28T12:24:29;65176.88;;;20.87;25.20
6833;BME280;3454;42.654;23.378;2023-04-28T12:27:12;65133.97;;;20.50;25.46
6833;BME280;3454;42.654;23.378;2023-04-28T12:29:40;65166.25;;;20.82;24.60
6833;BME280;3454;42.654;23.378;2023-04-28T12:32:07;65148.00;;;20.65;24.79
6833;BME280;3454;42.654;23.378;2023-04-28T12:34:33;65264.84;;;21.67;23.48
6833;BME280;3454;42.654;23.378;2023-04-28T12:37:00;65208.63;;;21.18;23.95
6833;BME280;3454;42.654;23.378;2023-04-28T12:39:26;65142.63;;;20.56;24.07
6833;BME280;3454;42.654;23.378;2023-04-28T12:41:52;65161.97;;;20.73;23.72
6833;BME280;3454;42.654;23.378;2023-04-28T12:44:20;65136.75;;;20.53;25.64
6833;BME280;3454;42.654;23.378;2023-04-28T12:46:47;65237.75;;;21.42;25.58
6833;BME280;3454;42.654;23.378;2023-04-28T12:49:13;65119.97;;;20.35;24.77
6833;BME280;3454;42.654;23.378;2023-04-28T12:51:39;65195.72;;;21.04;24.95
6833;BME280;3454;42.654;23.378;2023-04-28T12:54:05;65236.63;;;21.41;25.16
6833;BME280;3454;42.654;23.378;2023-04-28T12:56:31;65298.25;;;22.00;24.28
6833;BME280;3454;42.654;23.378;2023-04-28T12:58:56;65332.56;;;22.31;24.17
6833;BME280;3454;42.654;23.378;2023-04-28T13:01:22;65251.56;;;21.55;24.14
6833;BME280;3454;42.654;23.378;2023-04-28T13:03:47;65221.34;;;21.30;24.81
6833;BME280;3454;42.654;23.378;2023-04-28T13:06:15;65335.53;;;22.36;25.16
6833;BME280;3454;42.654;23.378;2023-04-28T13:08:40;65377.41;;;22.72;24.65
6833;BME280;3454;42.654;23.378;2023-04-28T13:11:06;65386.84;;;22.80;23.17
6833;BME280;3454;42.654;23.378;2023-04-28T13:13:31;65257.09;;;21.60;24.00
6833;BME280;3454;42.654;23.378;2023-04-28T13:15:57;65114.44;;;20.30;25.09
6833;BME280;3454;42.654;23.378;2023-04-28T13:18:22;65088.13;;;20.08;26.07
6833;BME280;3454;42.654;23.378;2023-04-28T13:20:48;65084.25;;;20.05;26.72
6833;BME280;3454;42.654;23.378;2023-04-28T13:23:14;65039.31;;;19.62;25.91
6833;BME280;3454;42.654;23.378;2023-04-28T13:25:39;65158.09;;;20.70;26.31
6833;BME280;3454;42.654;23.378;2023-04-28T13:28:05;65036.56;;;19.59;25.68
6833;BME280;3454;42.654;23.378;2023-04-28T13:30:30;65050.72;;;19.70;26.12
6833;BME280;3454;42.654;23.378;2023-04-28T13:32:56;64962.03;;;18.91;27.42
6833;BME280;3454;42.654;23.378;2023-04-28T13:35:23;65090.31;;;20.10;28.24
6833;BME280;3454;42.654;23.378;2023-04-28T13:37:48;65172.13;;;20.85;25.95
6833;BME280;3454;42.654;23.378;2023-04-28T13:40:14;65226.69;;;21.32;26.01
6833;BME280;3454;42.654;23.378;2023-04-28T13:42:39;65298.78;;;22.00;25.80
6833;BME280;3454;42.654;23.378;2023-04-28T13:45:05;65217.47;;;21.26;24.91
6833;BME280;3454;42.654;23.378;2023-04-28T13:47:31;65204.41;;;21.17;25.16